sensor_id;sensor_type;location;lat;lon;timestamp;P1;durP1;ratioP1;P2;durP2;ratioP2
37051;SDS011;22964;52.272;13.356;2023-04-24T00:00:14;4.43;;;3.03;;
37051;SDS011;22964;52.272;13.356;2023-04-24T00:02:41;5.78;;;2.90;;
37051;SDS011;22964;52.272;13.356;2023-04-24T00:05:10;5.13;;;3.00;;
37051;SDS011;22964;52.272;13.356;2023-04-24T00:07:35;5.55;;;2.90;;
37051;SDS011;22964;52.272;13.356;2023-04-24T00:10:01;3.55;;;2.70;;
37051;SDS011;22964;52.272;13.356;2023-04-24T00:12:27;4.55;;;2.92;;
37051;SDS011;22964;52.272;13.356;2023-04-24T00:14:53;4.68;;;2.80;;
37051;SDS011;22964;52.272;13.356;2023-04-24T00:17:18;3.60;;;2.72;;
37051;SDS011;22964;52.272;13.356;2023-04-24T00:19:47;4.68;;;2.80;;
37051;SDS011;22964;52.272;13.356;2023-04-24T00:22:16;3.13;;;2.53;;
37051;SDS011;22964;52.272;13.356;2023-04-24T00:24:42;3.83;;;2.83;;
37051;SDS011;22964;52.272;13.356;2023-04-24T00:27:08;3.90;;;2.65;;
37051;SDS011;22964;52.272;13.356;2023-04-24T00:29:34;3.22;;;2.63;;
37051;SDS011;22964;52.272;13.356;2023-04-24T00:32:00;5.20;;;2.75;;
37051;SDS011;22964;52.272;13.356;2023-04-24T00:34:25;3.15;;;2.50;;
37051;SDS011;22964;52.272;13.356;2023-04-24T00:36:51;3.88;;;2.60;;
37051;SDS011;22964;52.272;13.356;2023-04-24T00:39:18;4.78;;;2.53;;
37051;SDS011;22964;52.272;13.356;2023-04-24T00:41:45;4.07;;;2.72;;
37051;SDS011;22964;52.272;13.356;2023-04-24T00:44:11;3.30;;;2.40;;
37051;SDS011;22964;52.272;13.356;2023-04-24T00:46:37;4.60;;;2.75;;
37051;SDS011;22964;52.272;13.356;2023-04-24T00:49:04;3.70;;;2.80;;
37051;SDS011;22964;52.272;13.356;2023-04-24T00:51:31;3.88;;;2.58;;
37051;SDS011;22964;52.272;13.356;2023-04-24T00:53:58;4.03;;;2.67;;
37051;SDS011;22964;52.272;13.356;2023-04-24T00:56:24;5.15;;;2.67;;
37051;SDS011;22964;52.272;13.356;2023-04-24T00:58:50;3.25;;;2.58;;
37051;SDS011;22964;52.272;13.356;2023-04-24T01:01:16;3.80;;;2.78;;
37051;SDS011;22964;52.272;13.356;2023-04-24T01:03:45;3.67;;;2.78;;
37051;SDS011;22964;52.272;13.356;2023-04-24T01:06:12;3.17;;;2.50;;
37051;SDS011;22964;52.272;13.356;2023-04-24T01:08:38;3.55;;;2.65;;
37051;SDS011;22964;52.272;13.356;2023-04-24T01:11:06;3.78;;;2.80;;
37051;SDS011;22964;52.272;13.356;2023-04-24T01:13:32;3.75;;;2.80;;
37051;SDS011;22964;52.272;13.356;2023-04-24T01:15:58;3.30;;;2.75;;
37051;SDS011;22964;52.272;13.356;2023-04-24T01:18:26;4.03;;;2.75;;
37051;SDS011;22964;52.272;13.356;2023-04-24T01:20:53;5.18;;;2.75;;
37051;SDS011;22964;52.272;13.356;2023-04-24T01:23:22;5.50;;;2.88;;
37051;SDS011;22964;52.272;13.356;2023-04-24T01:25:50;3.65;;;3.15;;
37051;SDS011;22964;52.272;13.356;2023-04-24T01:28:17;4.05;;;3.10;;
37051;SDS011;22964;52.272;13.356;2023-04-24T01:30:43;4.95;;;2.85;;
37051;SDS011;22964;52.272;13.356;2023-04-24T01:33:08;5.65;;;2.85;;
37051;SDS011;22964;52.272;13.356;2023-04-24T01:35:35;4.72;;;2.85;;
37051;SDS011;22964;52.272;13.356;2023-04-24T01:38:02;3.80;;;2.78;;
37051;SDS011;22964;52.272;13.356;2023-04-24T01:40:29;3.50;;;2.70;;
37051;SDS011;22964;52.272;13.356;2023-04-24T01:42:57;3.53;;;2.85;;
37051;SDS011;22964;52.272;13.356;2023-04-24T01:45:23;3.78;;;2.80;;
37051;SDS011;22964;52.272;13.356;2023-04-24T01:47:49;3.65;;;2.83;;
37051;SDS011;22964;52.272;13.356;2023-04-24T01:50:16;4.13;;;2.95;;
37051;SDS011;22964;52.272;13.356;2023-04-24T01:52:42;4.38;;;2.70;;
37051;SDS011;22964;52.272;13.356;2023-04-24T01:55:08;3.60;;;2.75;;
37051;SDS011;22964;52.272;13.356;2023-04-24T01:57:35;3.47;;;2.88;;
37051;SDS011;22964;52.272;13.356;2023-04-24T02:00:01;3.53;;;2.72;;
37051;SDS011;22964;52.272;13.356;2023-04-24T02:02:41;4.72;;;2.80;;
37051;SDS011;22964;52.272;13.356;2023-04-24T02:05:07;3.30;;;2.70;;
37051;SDS011;22964;52.272;13.356;2023-04-24T02:07:35;3.90;;;2.72;;
37051;SDS011;22964;52.272;13.356;2023-04-24T02:10:01;4.40;;;3.20;;
37051;SDS011;22964;52.272;13.356;2023-04-24T02:12:27;3.70;;;2.90;;
37051;SDS011;22964;52.272;13.356;2023-04-24T02:14:52;3.65;;;3.00;;
37051;SDS011;22964;52.272;13.356;2023-04-24T02:17:18;5.07;;;2.63;;
37051;SDS011;22964;52.272;13.356;2023-04-24T02:19:44;4.25;;;3.00;;
37051;SDS011;22964;52.272;13.356;2023-04-24T02:22:11;4.25;;;3.05;;
37051;SDS011;22964;52.272;13.356;2023-04-24T02:24:37;7.95;;;3.20;;
37051;SDS011;22964;52.272;13.356;2023-04-24T02:27:05;4.68;;;2.85;;
37051;SDS011;22964;52.272;13.356;2023-04-24T02:29:31;3.42;;;2.60;;
37051;SDS011;22964;52.272;13.356;2023-04-24T02:31:57;4.47;;;2.83;;
37051;SDS011;22964;52.272;13.356;2023-04-24T02:34:23;4.32;;;3.08;;
37051;SDS011;22964;52.272;13.356;2023-04-24T02:36:48;3.25;;;2.65;;
37051;SDS011;22964;52.272;13.356;2023-04-24T02:39:14;3.95;;;2.83;;
37051;SDS011;22964;52.272;13.356;2023-04-24T02:41:43;3.30;;;2.45;;
37051;SDS011;22964;52.272;13.356;2023-04-24T02:44:09;3.42;;;2.40;;
37051;SDS011;22964;52.272;13.356;2023-04-24T02:46:35;5.72;;;2.63;;
37051;SDS011;22964;52.272;13.356;2023-04-24T02:49:00;3.50;;;2.80;;
37051;SDS011;22964;52.272;13.356;2023-04-24T02:51:26;4.13;;;2.88;;
37051;SDS011;22964;52.272;13.356;2023-04-24T02:53:52;4.72;;;3.13;;
37051;SDS011;22964;52.272;13.356;2023-04-24T02:56:18;3.20;;;2.55;;
37051;SDS011;22964;52.272;13.356;2023-04-24T02:58:44;4.78;;;2.50;;
37051;SDS011;22964;52.272;13.356;2023-04-24T03:01:10;3.90;;;2.95;;
37051;SDS011;22964;52.272;13.356;2023-04-24T03:03:36;4.78;;;3.00;;
37051;SDS011;22964;52.272;13.356;2023-04-24T03:06:03;3.15;;;2.47;;
37051;SDS011;22964;52.272;13.356;2023-04-24T03:08:34;3.70;;;2.60;;
37051;SDS011;22964;52.272;13.356;2023-04-24T03:10:59;4.65;;;2.70;;
37051;SDS011;22964;52.272;13.356;2023-04-24T03:13:25;3.60;;;2.65;;
37051;SDS011;22964;52.272;13.356;2023-04-24T03:15:51;3.33;;;2.60;;
37051;SDS011;22964;52.272;13.356;2023-04-24T03:18:17;3.45;;;2.50;;
37051;SDS011;22964;52.272;13.356;2023-04-24T03:20:45;5.72;;;2.85;;
37051;SDS011;22964;52.272;13.356;2023-04-24T03:23:12;3.95;;;2.67;;
37051;SDS011;22964;52.272;13.356;2023-04-24T03:25:38;3.70;;;2.60;;
37051;SDS011;22964;52.272;13.356;2023-04-24T03:28:05;3.17;;;2.45;;
37051;SDS011;22964;52.272;13.356;2023-04-24T03:30:40;3.83;;;2.67;;
37051;SDS011;22964;52.272;13.356;2023-04-24T03:33:07;4.55;;;2.70;;
37051;SDS011;22964;52.272;13.356;2023-04-24T03:35:37;3.20;;;2.60;;
37051;SDS011;22964;52.272;13.356;2023-04-24T03:38:07;5.13;;;3.05;;
37051;SDS011;22964;52.272;13.356;2023-04-24T03:40:41;4.20;;;2.70;;
37051;SDS011;22964;52.272;13.356;2023-04-24T03:43:30;3.92;;;2.60;;
37051;SDS011;22964;52.272;13.356;2023-04-24T03:45:59;4.13;;;2.78;;
37051;SDS011;22964;52.272;13.356;2023-04-24T03:48:25;3.85;;;2.60;;
37051;SDS011;22964;52.272;13.356;2023-04-24T03:50:51;3.35;;;2.60;;
37051;SDS011;22964;52.272;13.356;2023-04-24T03:53:17;3.25;;;2.38;;
37051;SDS011;22964;52.272;13.356;2023-04-24T03:55:43;3.70;;;2.40;;
37051;SDS011;22964;52.272;13.356;2023-04-24T03:58:09;3.00;;;2.42;;
37051;SDS011;22964;52.272;13.356;2023-04-24T04:00:36;3.22;;;2.50;;
37051;SDS011;22964;52.272;13.356;2023-04-24T04:03:32;4.20;;;2.28;;
37051;SDS011;22964;52.272;13.356;2023-04-24T04:05:57;3.00;;;2.10;;
37051;SDS011;22964;52.272;13.356;2023-04-24T04:08:23;2.90;;;2.20;;
37051;SDS011;22964;52.272;13.356;2023-04-24T04:10:49;2.92;;;2.20;;
37051;SDS011;22964;52.272;13.356;2023-04-24T04:13:15;3.33;;;2.30;;
37051;SDS011;22964;52.272;13.356;2023-04-24T04:15:40;2.53;;;1.95;;
37051;SDS011;22964;52.272;13.356;2023-04-24T04:18:06;3.25;;;2.08;;
37051;SDS011;22964;52.272;13.356;2023-04-24T04:20:32;2.78;;;2.00;;
37051;SDS011;22964;52.272;13.356;2023-04-24T04:22:58;3.05;;;2.13;;
37051;SDS011;22964;52.272;13.356;2023-04-24T04:25:35;3.35;;;2.30;;
37051;SDS011;22964;52.272;13.356;2023-04-24T04:28:01;3.72;;;2.20;;
37051;SDS011;22964;52.272;13.356;2023-04-24T04:30:27;2.72;;;2.00;;
37051;SDS011;22964;52.272;13.356;2023-04-24T04:33:00;2.65;;;1.88;;
37051;SDS011;22964;52.272;13.356;2023-04-24T04:35:26;2.72;;;1.98;;
37051;SDS011;22964;52.272;13.356;2023-04-24T04:37:53;2.88;;;2.00;;
37051;SDS011;22964;52.272;13.356;2023-04-24T04:40:37;2.60;;;2.10;;
37051;SDS011;22964;52.272;13.356;2023-04-24T04:43:05;3.03;;;2.13;;
37051;SDS011;22964;52.272;13.356;2023-04-24T04:45:38;2.67;;;1.90;;
37051;SDS011;22964;52.272;13.356;2023-04-24T04:48:26;3.03;;;2.00;;
37051;SDS011;22964;52.272;13.356;2023-04-24T04:50:55;3.50;;;1.85;;
37051;SDS011;22964;52.272;13.356;2023-04-24T04:53:22;2.30;;;1.75;;
37051;SDS011;22964;52.272;13.356;2023-04-24T04:55:47;2.80;;;1.80;;
37051;SDS011;22964;52.272;13.356;2023-04-24T04:58:15;2.67;;;1.83;;
37051;SDS011;22964;52.272;13.356;2023-04-24T05:00:42;2.55;;;1.88;;
37051;SDS011;22964;52.272;13.356;2023-04-24T05:03:20;3.45;;;1.90;;
37051;SDS011;22964;52.272;13.356;2023-04-24T05:05:47;3.72;;;1.70;;
37051;SDS011;22964;52.272;13.356;2023-04-24T05:08:15;2.72;;;1.70;;
37051;SDS011;22964;52.272;13.356;2023-04-24T05:10:41;2.28;;;1.50;;
37051;SDS011;22964;52.272;13.356;2023-04-24T05:13:08;3.15;;;1.63;;
37051;SDS011;22964;52.272;13.356;2023-04-24T05:15:34;3.38;;;1.60;;
37051;SDS011;22964;52.272;13.356;2023-04-24T05:18:00;2.75;;;1.80;;
37051;SDS011;22964;52.272;13.356;2023-04-24T05:20:27;4.40;;;1.65;;
37051;SDS011;22964;52.272;13.356;2023-04-24T05:22:53;3.15;;;1.70;;
37051;SDS011;22964;52.272;13.356;2023-04-24T05:25:21;2.40;;;1.60;;
37051;SDS011;22964;52.272;13.356;2023-04-24T05:30:19;2.03;;;1.40;;
37051;SDS011;22964;52.272;13.356;2023-04-24T05:32:45;2.92;;;1.30;;
37051;SDS011;22964;52.272;13.356;2023-04-24T05:35:12;1.55;;;1.20;;
37051;SDS011;22964;52.272;13.356;2023-04-24T05:37:38;1.50;;;1.10;;
37051;SDS011;22964;52.272;13.356;2023-04-24T05:40:04;2.10;;;1.27;;
37051;SDS011;22964;52.272;13.356;2023-04-24T05:42:31;2.95;;;1.42;;
37051;SDS011;22964;52.272;13.356;2023-04-24T05:44:57;2.90;;;1.30;;
37051;SDS011;22964;52.272;13.356;2023-04-24T05:47:23;1.42;;;1.00;;
37051;SDS011;22964;52.272;13.356;2023-04-24T05:49:50;2.00;;;1.02;;
37051;SDS011;22964;52.272;13.356;2023-04-24T05:52:16;2.33;;;1.20;;
37051;SDS011;22964;52.272;13.356;2023-04-24T05:54:42;1.70;;;1.10;;
37051;SDS011;22964;52.272;13.356;2023-04-24T05:57:10;1.63;;;1.20;;
37051;SDS011;22964;52.272;13.356;2023-04-24T06:00:03;1.70;;;1.20;;
37051;SDS011;22964;52.272;13.356;2023-04-24T06:02:38;1.88;;;0.95;;
37051;SDS011;22964;52.272;13.356;2023-04-24T06:05:06;2.25;;;1.20;;
37051;SDS011;22964;52.272;13.356;2023-04-24T06:07:33;2.22;;;1.25;;
37051;SDS011;22964;52.272;13.356;2023-04-24T06:10:02;1.65;;;1.25;;
37051;SDS011;22964;52.272;13.356;2023-04-24T06:15:06;1.80;;;1.10;;
37051;SDS011;22964;52.272;13.356;2023-04-24T06:17:52;2.17;;;1.20;;
37051;SDS011;22964;52.272;13.356;2023-04-24T06:20:19;2.90;;;1.20;;
37051;SDS011;22964;52.272;13.356;2023-04-24T06:22:45;2.85;;;1.02;;
37051;SDS011;22964;52.272;13.356;2023-04-24T06:25:11;3.28;;;1.00;;
37051;SDS011;22964;52.272;13.356;2023-04-24T06:27:37;1.27;;;0.93;;
37051;SDS011;22964;52.272;13.356;2023-04-24T06:30:02;1.40;;;1.00;;
37051;SDS011;22964;52.272;13.356;2023-04-24T06:32:28;1.50;;;1.00;;
37051;SDS011;22964;52.272;13.356;2023-04-24T06:34:55;1.60;;;1.00;;
37051;SDS011;22964;52.272;13.356;2023-04-24T06:37:21;1.30;;;1.00;;
37051;SDS011;22964;52.272;13.356;2023-04-24T06:39:47;1.60;;;1.10;;
37051;SDS011;22964;52.272;13.356;2023-04-24T06:42:13;1.17;;;0.90;;
37051;SDS011;22964;52.272;13.356;2023-04-24T06:44:42;1.88;;;1.00;;
37051;SDS011;22964;52.272;13.356;2023-04-24T06:47:08;1.70;;;1.10;;
37051;SDS011;22964;52.272;13.356;2023-04-24T06:49:38;1.75;;;0.98;;
37051;SDS011;22964;52.272;13.356;2023-04-24T06:52:04;1.10;;;1.00;;
37051;SDS011;22964;52.272;13.356;2023-04-24T06:54:31;1.80;;;1.00;;
37051;SDS011;22964;52.272;13.356;2023-04-24T06:56:57;1.70;;;1.10;;
37051;SDS011;22964;52.272;13.356;2023-04-24T06:59:24;1.60;;;1.10;;
37051;SDS011;22964;52.272;13.356;2023-04-24T07:01:50;2.03;;;1.08;;
37051;SDS011;22964;52.272;13.356;2023-04-24T07:04:16;4.13;;;1.10;;
37051;SDS011;22964;52.272;13.356;2023-04-24T07:06:42;1.52;;;1.08;;
37051;SDS011;22964;52.272;13.356;2023-04-24T07:09:09;1.35;;;0.90;;
37051;SDS011;22964;52.272;13.356;2023-04-24T07:11:35;1.42;;;0.90;;
37051;SDS011;22964;52.272;13.356;2023-04-24T07:14:01;1.40;;;0.90;;
37051;SDS011;22964;52.272;13.356;2023-04-24T07:16:27;2.72;;;1.05;;
37051;SDS011;22964;52.272;13.356;2023-04-24T07:18:53;2.30;;;1.02;;
37051;SDS011;22964;52.272;13.356;2023-04-24T07:21:18;1.17;;;0.70;;
37051;SDS011;22964;52.272;13.356;2023-04-24T07:23:44;1.27;;;0.90;;
37051;SDS011;22964;52.272;13.356;2023-04-24T07:26:10;2.00;;;0.85;;
37051;SDS011;22964;52.272;13.356;2023-04-24T07:28:36;1.40;;;0.90;;
37051;SDS011;22964;52.272;13.356;2023-04-24T07:31:01;1.70;;;1.27;;
37051;SDS011;22964;52.272;13.356;2023-04-24T07:33:27;1.15;;;0.80;;
37051;SDS011;22964;52.272;13.356;2023-04-24T07:35:54;2.00;;;0.80;;
37051;SDS011;22964;52.272;13.356;2023-04-24T07:38:20;0.88;;;0.80;;
37051;SDS011;22964;52.272;13.356;2023-04-24T07:40:47;1.20;;;0.80;;
37051;SDS011;22964;52.272;13.356;2023-04-24T07:43:13;1.25;;;0.80;;
37051;SDS011;22964;52.272;13.356;2023-04-24T07:45:39;1.17;;;0.70;;
37051;SDS011;22964;52.272;13.356;2023-04-24T07:48:05;1.20;;;0.77;;
37051;SDS011;22964;52.272;13.356;2023-04-24T07:50:31;0.95;;;0.65;;
37051;SDS011;22964;52.272;13.356;2023-04-24T07:52:57;0.80;;;0.70;;
37051;SDS011;22964;52.272;13.356;2023-04-24T07:55:23;0.80;;;0.70;;
37051;SDS011;22964;52.272;13.356;2023-04-24T07:57:49;2.33;;;0.80;;
37051;SDS011;22964;52.272;13.356;2023-04-24T08:00:15;1.90;;;0.90;;
37051;SDS011;22964;52.272;13.356;2023-04-24T08:02:41;1.75;;;0.85;;
37051;SDS011;22964;52.272;13.356;2023-04-24T08:05:06;1.05;;;0.70;;
37051;SDS011;22964;52.272;13.356;2023-04-24T08:07:32;1.38;;;0.80;;
37051;SDS011;22964;52.272;13.356;2023-04-24T08:10:00;1.60;;;0.77;;
37051;SDS011;22964;52.272;13.356;2023-04-24T08:12:27;1.33;;;0.80;;
37051;SDS011;22964;52.272;13.356;2023-04-24T08:14:53;1.40;;;0.77;;
37051;SDS011;22964;52.272;13.356;2023-04-24T08:17:19;1.42;;;0.80;;
37051;SDS011;22964;52.272;13.356;2023-04-24T08:19:45;2.42;;;0.90;;
37051;SDS011;22964;52.272;13.356;2023-04-24T08:22:16;1.33;;;0.90;;
37051;SDS011;22964;52.272;13.356;2023-04-24T08:24:42;1.73;;;1.00;;
37051;SDS011;22964;52.272;13.356;2023-04-24T08:27:09;1.73;;;1.00;;
37051;SDS011;22964;52.272;13.356;2023-04-24T08:29:35;2.20;;;1.00;;
37051;SDS011;22964;52.272;13.356;2023-04-24T08:32:01;1.42;;;0.85;;
37051;SDS011;22964;52.272;13.356;2023-04-24T08:34:27;1.55;;;0.70;;
37051;SDS011;22964;52.272;13.356;2023-04-24T08:36:53;1.10;;;0.88;;
37051;SDS011;22964;52.272;13.356;2023-04-24T08:39:19;1.75;;;0.80;;
37051;SDS011;22964;52.272;13.356;2023-04-24T08:41:45;1.40;;;0.88;;
37051;SDS011;22964;52.272;13.356;2023-04-24T08:44:13;1.02;;;0.82;;
37051;SDS011;22964;52.272;13.356;2023-04-24T08:46:42;1.08;;;0.80;;
37051;SDS011;22964;52.272;13.356;2023-04-24T08:49:10;2.17;;;1.00;;
37051;SDS011;22964;52.272;13.356;2023-04-24T08:51:38;7.53;;;2.38;;
37051;SDS011;22964;52.272;13.356;2023-04-24T08:54:04;2.85;;;1.15;;
37051;SDS011;22964;52.272;13.356;2023-04-24T08:56:33;3.53;;;1.10;;
37051;SDS011;22964;52.272;13.356;2023-04-24T08:59:03;1.60;;;0.80;;
37051;SDS011;22964;52.272;13.356;2023-04-24T09:01:29;1.35;;;0.82;;
37051;SDS011;22964;52.272;13.356;2023-04-24T09:03:58;1.88;;;1.05;;
37051;SDS011;22964;52.272;13.356;2023-04-24T09:06:27;1.60;;;0.77;;
37051;SDS011;22964;52.272;13.356;2023-04-24T09:08:53;2.38;;;0.80;;
37051;SDS011;22964;52.272;13.356;2023-04-24T09:11:21;6.10;;;1.40;;
37051;SDS011;22964;52.272;13.356;2023-04-24T09:13:49;2.85;;;0.82;;
37051;SDS011;22964;52.272;13.356;2023-04-24T09:16:15;1.20;;;0.80;;
37051;SDS011;22964;52.272;13.356;2023-04-24T09:18:40;1.80;;;0.80;;
37051;SDS011;22964;52.272;13.356;2023-04-24T09:21:07;1.75;;;0.80;;
37051;SDS011;22964;52.272;13.356;2023-04-24T09:23:33;2.30;;;0.70;;
37051;SDS011;22964;52.272;13.356;2023-04-24T09:26:00;1.10;;;0.70;;
37051;SDS011;22964;52.272;13.356;2023-04-24T09:28:31;1.50;;;0.90;;
37051;SDS011;22964;52.272;13.356;2023-04-24T09:31:03;1.58;;;0.75;;
37051;SDS011;22964;52.272;13.356;2023-04-24T09:33:30;1.35;;;0.70;;
37051;SDS011;22964;52.272;13.356;2023-04-24T09:35:56;2.40;;;0.70;;
37051;SDS011;22964;52.272;13.356;2023-04-24T09:38:32;0.82;;;0.70;;
37051;SDS011;22964;52.272;13.356;2023-04-24T09:40:59;1.08;;;0.70;;
37051;SDS011;22964;52.272;13.356;2023-04-24T09:43:27;1.58;;;0.90;;
37051;SDS011;22964;52.272;13.356;2023-04-24T09:45:55;1.20;;;0.70;;
37051;SDS011;22964;52.272;13.356;2023-04-24T09:48:34;0.70;;;0.68;;
37051;SDS011;22964;52.272;13.356;2023-04-24T09:51:04;1.30;;;0.80;;
37051;SDS011;22964;52.272;13.356;2023-04-24T09:53:37;1.38;;;0.60;;
37051;SDS011;22964;52.272;13.356;2023-04-24T09:56:08;2.95;;;1.00;;
37051;SDS011;22964;52.272;13.356;2023-04-24T09:58:35;1.30;;;0.80;;
37051;SDS011;22964;52.272;13.356;2023-04-24T10:01:01;0.85;;;0.77;;
37051;SDS011;22964;52.272;13.356;2023-04-24T10:03:31;1.55;;;0.90;;
37051;SDS011;22964;52.272;13.356;2023-04-24T10:05:58;1.55;;;0.80;;
37051;SDS011;22964;52.272;13.356;2023-04-24T10:08:25;1.48;;;0.80;;
37051;SDS011;22964;52.272;13.356;2023-04-24T10:10:51;0.88;;;0.70;;
37051;SDS011;22964;52.272;13.356;2023-04-24T10:13:17;2.67;;;0.98;;
37051;SDS011;22964;52.272;13.356;2023-04-24T10:15:43;1.65;;;1.00;;
37051;SDS011;22964;52.272;13.356;2023-04-24T10:18:11;1.98;;;0.90;;
37051;SDS011;22964;52.272;13.356;2023-04-24T10:20:38;2.13;;;0.60;;
37051;SDS011;22964;52.272;13.356;2023-04-24T10:23:05;1.52;;;1.00;;
37051;SDS011;22964;52.272;13.356;2023-04-24T10:25:31;1.45;;;0.85;;
37051;SDS011;22964;52.272;13.356;2023-04-24T10:27:59;0.98;;;0.90;;
37051;SDS011;22964;52.272;13.356;2023-04-24T10:30:29;0.75;;;0.70;;
37051;SDS011;22964;52.272;13.356;2023-04-24T10:33:00;0.77;;;0.70;;
37051;SDS011;22964;52.272;13.356;2023-04-24T10:35:39;0.82;;;0.80;;
37051;SDS011;22964;52.272;13.356;2023-04-24T10:38:13;1.10;;;0.70;;
37051;SDS011;22964;52.272;13.356;2023-04-24T10:40:41;1.35;;;0.73;;
37051;SDS011;22964;52.272;13.356;2023-04-24T10:43:08;3.88;;;0.90;;
37051;SDS011;22964;52.272;13.356;2023-04-24T10:45:36;1.38;;;0.90;;
37051;SDS011;22964;52.272;13.356;2023-04-24T10:48:04;2.15;;;1.02;;
37051;SDS011;22964;52.272;13.356;2023-04-24T10:50:42;0.95;;;0.80;;
37051;SDS011;22964;52.272;13.356;2023-04-24T10:53:16;1.50;;;1.00;;
37051;SDS011;22964;52.272;13.356;2023-04-24T10:58:13;1.17;;;0.90;;
37051;SDS011;22964;52.272;13.356;2023-04-24T11:00:41;1.45;;;0.80;;
37051;SDS011;22964;52.272;13.356;2023-04-24T11:05:55;2.17;;;0.80;;
37051;SDS011;22964;52.272;13.356;2023-04-24T11:08:24;0.60;;;0.60;;
37051;SDS011;22964;52.272;13.356;2023-04-24T11:11:12;1.60;;;0.75;;
37051;SDS011;22964;52.272;13.356;2023-04-24T11:16:20;1.00;;;0.73;;
37051;SDS011;22964;52.272;13.356;2023-04-24T11:18:51;2.55;;;0.80;;
37051;SDS011;22964;52.272;13.356;2023-04-24T11:21:24;2.88;;;1.00;;
37051;SDS011;22964;52.272;13.356;2023-04-24T11:23:51;2.10;;;0.80;;
37051;SDS011;22964;52.272;13.356;2023-04-24T11:26:18;1.15;;;0.80;;
37051;SDS011;22964;52.272;13.356;2023-04-24T11:28:47;0.95;;;0.70;;
37051;SDS011;22964;52.272;13.356;2023-04-24T11:34:09;1.13;;;0.80;;
37051;SDS011;22964;52.272;13.356;2023-04-24T11:36:37;1.43;;;0.83;;
37051;SDS011;22964;52.272;13.356;2023-04-24T11:39:03;1.63;;;0.82;;
37051;SDS011;22964;52.272;13.356;2023-04-24T11:41:29;1.55;;;0.90;;
37051;SDS011;22964;52.272;13.356;2023-04-24T11:43:55;1.35;;;0.90;;
37051;SDS011;22964;52.272;13.356;2023-04-24T11:46:22;1.98;;;0.90;;
37051;SDS011;22964;52.272;13.356;2023-04-24T11:48:48;1.42;;;0.80;;
37051;SDS011;22964;52.272;13.356;2023-04-24T11:51:14;2.28;;;0.82;;
37051;SDS011;22964;52.272;13.356;2023-04-24T11:53:39;1.23;;;0.80;;
37051;SDS011;22964;52.272;13.356;2023-04-24T11:56:05;1.10;;;0.80;;
37051;SDS011;22964;52.272;13.356;2023-04-24T11:58:35;1.90;;;1.00;;
37051;SDS011;22964;52.272;13.356;2023-04-24T12:01:03;1.05;;;0.70;;
37051;SDS011;22964;52.272;13.356;2023-04-24T12:03:30;1.35;;;0.70;;
37051;SDS011;22964;52.272;13.356;2023-04-24T12:06:14;2.28;;;0.70;;
37051;SDS011;22964;52.272;13.356;2023-04-24T12:08:40;0.70;;;0.60;;
37051;SDS011;22964;52.272;13.356;2023-04-24T12:11:06;1.08;;;0.90;;
37051;SDS011;22964;52.272;13.356;2023-04-24T12:13:33;1.02;;;0.60;;
37051;SDS011;22964;52.272;13.356;2023-04-24T12:16:01;1.10;;;0.70;;
37051;SDS011;22964;52.272;13.356;2023-04-24T12:18:28;1.80;;;1.10;;
37051;SDS011;22964;52.272;13.356;2023-04-24T12:20:54;2.72;;;0.80;;
37051;SDS011;22964;52.272;13.356;2023-04-24T12:23:35;0.90;;;0.70;;
37051;SDS011;22964;52.272;13.356;2023-04-24T12:26:04;0.60;;;0.50;;
37051;SDS011;22964;52.272;13.356;2023-04-24T12:28:36;1.30;;;0.70;;
37051;SDS011;22964;52.272;13.356;2023-04-24T12:31:03;0.90;;;0.60;;
37051;SDS011;22964;52.272;13.356;2023-04-24T12:33:32;0.90;;;0.70;;
37051;SDS011;22964;52.272;13.356;2023-04-24T12:35:59;1.10;;;0.80;;
37051;SDS011;22964;52.272;13.356;2023-04-24T12:38:27;0.63;;;0.50;;
37051;SDS011;22964;52.272;13.356;2023-04-24T12:41:01;0.80;;;0.63;;
37051;SDS011;22964;52.272;13.356;2023-04-24T12:43:29;0.85;;;0.60;;
37051;SDS011;22964;52.272;13.356;2023-04-24T12:45:55;2.22;;;0.68;;
37051;SDS011;22964;52.272;13.356;2023-04-24T12:48:21;2.25;;;0.70;;
37051;SDS011;22964;52.272;13.356;2023-04-24T12:50:47;0.93;;;0.70;;
37051;SDS011;22964;52.272;13.356;2023-04-24T12:53:13;1.80;;;0.70;;
37051;SDS011;22964;52.272;13.356;2023-04-24T12:55:40;1.20;;;0.70;;
37051;SDS011;22964;52.272;13.356;2023-04-24T12:58:05;1.08;;;0.70;;
37051;SDS011;22964;52.272;13.356;2023-04-24T13:00:31;1.45;;;0.85;;
37051;SDS011;22964;52.272;13.356;2023-04-24T13:02:57;0.50;;;0.50;;
37051;SDS011;22964;52.272;13.356;2023-04-24T13:05:23;1.23;;;0.73;;
37051;SDS011;22964;52.272;13.356;2023-04-24T13:07:50;0.75;;;0.63;;
37051;SDS011;22964;52.272;13.356;2023-04-24T13:10:15;4.50;;;0.60;;
37051;SDS011;22964;52.272;13.356;2023-04-24T13:12:41;1.25;;;0.65;;
37051;SDS011;22964;52.272;13.356;2023-04-24T13:15:10;0.57;;;0.50;;
37051;SDS011;22964;52.272;13.356;2023-04-24T13:17:36;0.70;;;0.60;;
37051;SDS011;22964;52.272;13.356;2023-04-24T13:20:01;2.13;;;0.70;;
37051;SDS011;22964;52.272;13.356;2023-04-24T13:22:27;0.60;;;0.52;;
37051;SDS011;22964;52.272;13.356;2023-04-24T13:24:53;1.08;;;0.80;;
37051;SDS011;22964;52.272;13.356;2023-04-24T13:27:19;1.35;;;0.80;;
37051;SDS011;22964;52.272;13.356;2023-04-24T13:29:45;0.57;;;0.50;;
37051;SDS011;22964;52.272;13.356;2023-04-24T13:32:11;1.88;;;0.70;;
37051;SDS011;22964;52.272;13.356;2023-04-24T13:34:37;0.98;;;0.77;;
37051;SDS011;22964;52.272;13.356;2023-04-24T13:37:03;0.95;;;0.70;;
37051;SDS011;22964;52.272;13.356;2023-04-24T13:39:29;1.98;;;0.77;;
37051;SDS011;22964;52.272;13.356;2023-04-24T13:41:55;1.83;;;0.88;;
37051;SDS011;22964;52.272;13.356;2023-04-24T13:44:22;2.08;;;0.60;;
37051;SDS011;22964;52.272;13.356;2023-04-24T13:46:49;1.20;;;0.68;;
37051;SDS011;22964;52.272;13.356;2023-04-24T13:49:17;1.33;;;0.80;;
37051;SDS011;22964;52.272;13.356;2023-04-24T13:51:43;1.77;;;0.80;;
37051;SDS011;22964;52.272;13.356;2023-04-24T13:54:09;1.85;;;0.77;;
37051;SDS011;22964;52.272;13.356;2023-04-24T13:56:35;1.60;;;0.70;;
37051;SDS011;22964;52.272;13.356;2023-04-24T13:59:01;3.97;;;0.80;;
37051;SDS011;22964;52.272;13.356;2023-04-24T14:01:28;0.93;;;0.70;;
37051;SDS011;22964;52.272;13.356;2023-04-24T14:03:54;1.50;;;0.63;;
37051;SDS011;22964;52.272;13.356;2023-04-24T14:06:20;2.15;;;0.68;;
37051;SDS011;22964;52.272;13.356;2023-04-24T14:08:47;1.13;;;0.80;;
37051;SDS011;22964;52.272;13.356;2023-04-24T14:11:12;2.05;;;0.80;;
37051;SDS011;22964;52.272;13.356;2023-04-24T14:13:40;1.67;;;0.80;;
37051;SDS011;22964;52.272;13.356;2023-04-24T14:16:07;1.98;;;0.70;;
37051;SDS011;22964;52.272;13.356;2023-04-24T14:18:32;1.63;;;0.50;;
37051;SDS011;22964;52.272;13.356;2023-04-24T14:20:58;4.57;;;0.80;;
37051;SDS011;22964;52.272;13.356;2023-04-24T14:23:26;0.80;;;0.60;;
37051;SDS011;22964;52.272;13.356;2023-04-24T14:25:52;0.90;;;0.65;;
37051;SDS011;22964;52.272;13.356;2023-04-24T14:28:18;1.00;;;0.68;;
37051;SDS011;22964;52.272;13.356;2023-04-24T14:30:45;0.95;;;0.55;;
37051;SDS011;22964;52.272;13.356;2023-04-24T14:33:11;2.67;;;0.80;;
37051;SDS011;22964;52.272;13.356;2023-04-24T14:35:38;0.88;;;0.70;;
37051;SDS011;22964;52.272;13.356;2023-04-24T14:38:05;4.97;;;0.90;;
37051;SDS011;22964;52.272;13.356;2023-04-24T14:40:31;1.17;;;0.70;;
37051;SDS011;22964;52.272;13.356;2023-04-24T14:42:57;1.83;;;0.73;;
37051;SDS011;22964;52.272;13.356;2023-04-24T14:45:26;3.03;;;0.85;;
37051;SDS011;22964;52.272;13.356;2023-04-24T14:47:52;0.98;;;0.70;;
37051;SDS011;22964;52.272;13.356;2023-04-24T14:50:19;2.30;;;0.90;;